Bonaria — ICUS — position and weather

sailwx.info

Track history (hours):
 
Tides and Currents Weather Stations Pressure Air Temp Water Temp Dewpoint Dewpoint Depression Visibility Wind Speed Wind Dir Waves Ship Positions

Bonaria

Last reported at 2015-Aug-03 04:20 UTC. Time now 2015-Aug-03 15:06 UTC.
Position N 41°17' E 010°56'.

Length 213 m; draft 6.7 m.

Type: Ship. MMSI: 247322400.

Date/timePositionNaut miles runAvg speedWind from/ knotsBaromVisibWave heightAir tempDewpointWater temp
2015-Aug-03 04:20N 41°17' E 010°56'151 6.3
2015-Aug-02 04:30N 38°60' E 009°34'15719.8
2015-Aug-01 20:32N 41°19' E 011°11'4319.2
2015-Aug-01 18:18N 41°57' E 011°36'53 3.3
2015-Aug-01 02:33N 41°10' E 011°05'2119.5
2015-Aug-01 01:30N 40°52' E 010°53'1918.8
2015-Aug-01 00:31N 40°35' E 010°41'1918.8
2015-Jul-31 23:32N 40°19' E 010°30'9318.7
2015-Jul-31 18:33N 38°59' E 009°29'1918.7
2015-Jul-31 17:32N 39°09' E 009°09'4 4.0
2015-Jul-31 16:31N 39°13' E 009°06'0 0.0
2015-Jul-31 15:31N 39°13' E 009°06'0 0.0
2015-Jul-31 14:33N 39°13' E 009°06'0 0.0
2015-Jul-31 13:33N 39°13' E 009°06'0 0.0
2015-Jul-31 12:32N 39°13' E 009°06'0 0.0
2015-Jul-31 11:29N 39°13' E 009°06'0 0.0
2015-Jul-31 10:31N 39°13' E 009°06'0 0.0
2015-Jul-31 09:31N 39°13' E 009°06'0 0.0
2015-Jul-31 08:31N 39°13' E 009°06'0 0.2
2015-Jul-31 06:16N 39°12' E 009°07'1114.9
2015-Jul-31 05:33N 39°05' E 009°17'11518.4
2015-Jul-30 23:17N 40°40' E 010°43'4220.4
2015-Jul-30 21:12N 41°18' E 011°08'38 2.6
2015-Jul-30 06:17N 41°52' E 011°30'1619.1
2015-Jul-30 05:26N 41°39' E 011°18'17916.4
2015-Jul-29 18:34N 38°59' E 009°33'2019.9
2015-Jul-29 17:33N 39°09' E 009°10'5 4.7
2015-Jul-29 16:31N 39°13' E 009°07'0 0.0
2015-Jul-29 15:33N 39°13' E 009°07'0 0.0
2015-Jul-29 14:33N 39°13' E 009°07'0 0.0
2015-Jul-29 13:32N 39°13' E 009°07'0 0.0
2015-Jul-29 12:32N 39°13' E 009°07'0 0.0
2015-Jul-29 11:29N 39°13' E 009°07'0 0.0
2015-Jul-29 10:31N 39°13' E 009°07'0 0.0
2015-Jul-29 09:31N 39°13' E 009°07'0 0.0
2015-Jul-29 08:33N 39°13' E 009°07'0 0.0
2015-Jul-29 07:33N 39°13' E 009°07'0 0.0
2015-Jul-29 06:32N 39°13' E 009°07'8 8.2
2015-Jul-29 05:33N 39°07' E 009°14'19 0.6
2015-Jul-27 19:04N 39°03' E 009°39'1515.4
2015-Jul-27 18:04N 39°04' E 009°19'1019.0
2015-Jul-27 17:33N 39°10' E 009°08'3 2.9
2015-Jul-27 16:31N 39°12' E 009°07'0 0.0
2015-Jul-27 15:31N 39°12' E 009°07'0 0.0
2015-Jul-27 14:34N 39°12' E 009°07'0 0.0
2015-Jul-27 13:33N 39°12' E 009°07'0 0.0
2015-Jul-27 12:33N 39°12' E 009°07'0 0.0
2015-Jul-27 11:32N 39°12' E 009°07'0 0.0
2015-Jul-27 10:32N 39°12' E 009°07'0 0.0
2015-Jul-27 09:31N 39°12' E 009°07'0 0.0
2015-Jul-27 08:31N 39°12' E 009°07'0 0.0
2015-Jul-27 07:33N 39°12' E 009°07'0 0.0
2015-Jul-27 06:33N 39°12' E 009°07'7 6.8
2015-Jul-27 05:32N 39°07' E 009°13'3 0.1
2015-Jul-25 17:33N 39°09' E 009°10'5 4.6
2015-Jul-25 16:32N 39°13' E 009°06'0 0.0
2015-Jul-25 15:32N 39°13' E 009°06'0 0.0
2015-Jul-25 14:31N 39°13' E 009°06'0 0.0
2015-Jul-25 13:31N 39°13' E 009°06'0 0.0
2015-Jul-25 12:33N 39°13' E 009°06'0 0.0
2015-Jul-25 11:33N 39°13' E 009°06'0 0.0
2015-Jul-25 10:33N 39°13' E 009°06'0 0.0
2015-Jul-25 09:32N 39°13' E 009°06'0 0.0
2015-Jul-25 08:33N 39°13' E 009°06'7 7.4
2015-Jul-25 07:33N 39°07' E 009°13'  
Track history (hours):
 
Tides and Currents Weather Stations Pressure Air Temp Water Temp Dewpoint Dewpoint Depression Visibility Wind Speed Wind Dir Waves Ship Positions

Bonaria

Last reported at 2015-Aug-03 04:20 UTC. Time now 2015-Aug-03 15:06 UTC.
Position N 41°17' E 010°56'.

Length 213 m; draft 6.7 m.

Type: Ship. MMSI: 247322400.

Date/timePositionNaut miles runAvg speedWind from/ knotsBaromVisibWave heightAir tempDewpointWater temp
2015-Aug-03 04:20N 41°17' E 010°56'151 6.3
2015-Aug-02 04:30N 38°60' E 009°34'15719.8
2015-Aug-01 20:32N 41°19' E 011°11'4319.2
2015-Aug-01 18:18N 41°57' E 011°36'53 3.3
2015-Aug-01 02:33N 41°10' E 011°05'2119.5
2015-Aug-01 01:30N 40°52' E 010°53'1918.8
2015-Aug-01 00:31N 40°35' E 010°41'1918.8
2015-Jul-31 23:32N 40°19' E 010°30'9318.7
2015-Jul-31 18:33N 38°59' E 009°29'1918.7
2015-Jul-31 17:32N 39°09' E 009°09'4 4.0
2015-Jul-31 16:31N 39°13' E 009°06'0 0.0
2015-Jul-31 15:31N 39°13' E 009°06'0 0.0
2015-Jul-31 14:33N 39°13' E 009°06'0 0.0
2015-Jul-31 13:33N 39°13' E 009°06'0 0.0
2015-Jul-31 12:32N 39°13' E 009°06'0 0.0
2015-Jul-31 11:29N 39°13' E 009°06'0 0.0
2015-Jul-31 10:31N 39°13' E 009°06'0 0.0
2015-Jul-31 09:31N 39°13' E 009°06'0 0.0
2015-Jul-31 08:31N 39°13' E 009°06'0 0.2
2015-Jul-31 06:16N 39°12' E 009°07'1114.9
2015-Jul-31 05:33N 39°05' E 009°17'11518.4
2015-Jul-30 23:17N 40°40' E 010°43'4220.4
2015-Jul-30 21:12N 41°18' E 011°08'38 2.6
2015-Jul-30 06:17N 41°52' E 011°30'1619.1
2015-Jul-30 05:26N 41°39' E 011°18'17916.4
2015-Jul-29 18:34N 38°59' E 009°33'2019.9
2015-Jul-29 17:33N 39°09' E 009°10'5 4.7
2015-Jul-29 16:31N 39°13' E 009°07'0 0.0
2015-Jul-29 15:33N 39°13' E 009°07'0 0.0
2015-Jul-29 14:33N 39°13' E 009°07'0 0.0
2015-Jul-29 13:32N 39°13' E 009°07'0 0.0
2015-Jul-29 12:32N 39°13' E 009°07'0 0.0
2015-Jul-29 11:29N 39°13' E 009°07'0 0.0
2015-Jul-29 10:31N 39°13' E 009°07'0 0.0
2015-Jul-29 09:31N 39°13' E 009°07'0 0.0
2015-Jul-29 08:33N 39°13' E 009°07'0 0.0
2015-Jul-29 07:33N 39°13' E 009°07'0 0.0
2015-Jul-29 06:32N 39°13' E 009°07'8 8.2
2015-Jul-29 05:33N 39°07' E 009°14'19 0.6
2015-Jul-27 19:04N 39°03' E 009°39'1515.4
2015-Jul-27 18:04N 39°04' E 009°19'1019.0
2015-Jul-27 17:33N 39°10' E 009°08'3 2.9
2015-Jul-27 16:31N 39°12' E 009°07'0 0.0
2015-Jul-27 15:31N 39°12' E 009°07'0 0.0
2015-Jul-27 14:34N 39°12' E 009°07'0 0.0
2015-Jul-27 13:33N 39°12' E 009°07'0 0.0
2015-Jul-27 12:33N 39°12' E 009°07'0 0.0
2015-Jul-27 11:32N 39°12' E 009°07'0 0.0
2015-Jul-27 10:32N 39°12' E 009°07'0 0.0
2015-Jul-27 09:31N 39°12' E 009°07'0 0.0
2015-Jul-27 08:31N 39°12' E 009°07'0 0.0
2015-Jul-27 07:33N 39°12' E 009°07'0 0.0
2015-Jul-27 06:33N 39°12' E 009°07'7 6.8
2015-Jul-27 05:32N 39°07' E 009°13'3 0.1
2015-Jul-25 17:33N 39°09' E 009°10'5 4.6
2015-Jul-25 16:32N 39°13' E 009°06'0 0.0
2015-Jul-25 15:32N 39°13' E 009°06'0 0.0
2015-Jul-25 14:31N 39°13' E 009°06'0 0.0
2015-Jul-25 13:31N 39°13' E 009°06'0 0.0
2015-Jul-25 12:33N 39°13' E 009°06'0 0.0
2015-Jul-25 11:33N 39°13' E 009°06'0 0.0
2015-Jul-25 10:33N 39°13' E 009°06'0 0.0
2015-Jul-25 09:32N 39°13' E 009°06'0 0.0
2015-Jul-25 08:33N 39°13' E 009°06'7 7.4
2015-Jul-25 07:33N 39°07' E 009°13'  

Dump ship's entire track history